sensor_id;sensor_type;location;lat;lon;timestamp;P1;durP1;ratioP1;P2;durP2;ratioP2
38811;SDS011;24553;51.640;-0.752;2023-01-24T00:01:54;9.43;;;5.82;;
38811;SDS011;24553;51.640;-0.752;2023-01-24T00:04:19;10.45;;;4.55;;
38811;SDS011;24553;51.640;-0.752;2023-01-24T00:06:44;12.35;;;5.22;;
38811;SDS011;24553;51.640;-0.752;2023-01-24T00:09:10;13.07;;;4.10;;
38811;SDS011;24553;51.640;-0.752;2023-01-24T00:11:35;9.95;;;4.57;;
38811;SDS011;24553;51.640;-0.752;2023-01-24T00:14:00;12.05;;;4.13;;
38811;SDS011;24553;51.640;-0.752;2023-01-24T00:16:26;12.13;;;5.18;;
38811;SDS011;24553;51.640;-0.752;2023-01-24T00:18:51;11.57;;;4.85;;
38811;SDS011;24553;51.640;-0.752;2023-01-24T00:21:18;9.52;;;4.25;;
38811;SDS011;24553;51.640;-0.752;2023-01-24T00:23:45;13.60;;;5.03;;
38811;SDS011;24553;51.640;-0.752;2023-01-24T00:26:13;9.07;;;3.45;;
38811;SDS011;24553;51.640;-0.752;2023-01-24T00:28:39;10.30;;;3.80;;
38811;SDS011;24553;51.640;-0.752;2023-01-24T00:31:04;12.88;;;5.63;;
38811;SDS011;24553;51.640;-0.752;2023-01-24T00:33:32;9.10;;;3.75;;
38811;SDS011;24553;51.640;-0.752;2023-01-24T00:35:57;9.02;;;4.38;;
38811;SDS011;24553;51.640;-0.752;2023-01-24T00:38:23;12.23;;;4.30;;
38811;SDS011;24553;51.640;-0.752;2023-01-24T00:40:48;6.50;;;3.58;;
38811;SDS011;24553;51.640;-0.752;2023-01-24T00:43:14;5.60;;;3.63;;
38811;SDS011;24553;51.640;-0.752;2023-01-24T00:45:39;16.10;;;3.78;;
38811;SDS011;24553;51.640;-0.752;2023-01-24T00:48:05;5.90;;;3.60;;
38811;SDS011;24553;51.640;-0.752;2023-01-24T00:50:32;11.00;;;3.78;;
38811;SDS011;24553;51.640;-0.752;2023-01-24T00:52:58;6.75;;;3.13;;
38811;SDS011;24553;51.640;-0.752;2023-01-24T00:55:24;4.78;;;2.95;;
38811;SDS011;24553;51.640;-0.752;2023-01-24T00:57:49;15.68;;;5.18;;
38811;SDS011;24553;51.640;-0.752;2023-01-24T01:00:15;9.25;;;3.63;;
38811;SDS011;24553;51.640;-0.752;2023-01-24T01:02:40;11.68;;;4.57;;
38811;SDS011;24553;51.640;-0.752;2023-01-24T01:05:06;9.57;;;4.78;;
38811;SDS011;24553;51.640;-0.752;2023-01-24T01:07:32;11.77;;;3.58;;
38811;SDS011;24553;51.640;-0.752;2023-01-24T01:09:57;7.80;;;4.07;;
38811;SDS011;24553;51.640;-0.752;2023-01-24T01:12:22;7.55;;;3.90;;
38811;SDS011;24553;51.640;-0.752;2023-01-24T01:14:48;9.88;;;4.03;;
38811;SDS011;24553;51.640;-0.752;2023-01-24T01:17:14;10.02;;;4.70;;
38811;SDS011;24553;51.640;-0.752;2023-01-24T01:19:40;8.35;;;3.58;;
38811;SDS011;24553;51.640;-0.752;2023-01-24T01:22:05;11.35;;;4.32;;
38811;SDS011;24553;51.640;-0.752;2023-01-24T01:24:30;7.78;;;3.20;;
38811;SDS011;24553;51.640;-0.752;2023-01-24T01:26:56;8.82;;;4.32;;
38811;SDS011;24553;51.640;-0.752;2023-01-24T01:29:22;11.23;;;5.30;;
38811;SDS011;24553;51.640;-0.752;2023-01-24T01:31:47;7.57;;;3.42;;
38811;SDS011;24553;51.640;-0.752;2023-01-24T01:34:13;10.70;;;4.78;;
38811;SDS011;24553;51.640;-0.752;2023-01-24T01:36:38;10.13;;;3.45;;
38811;SDS011;24553;51.640;-0.752;2023-01-24T01:39:03;12.85;;;3.35;;
38811;SDS011;24553;51.640;-0.752;2023-01-24T01:41:29;3.72;;;3.03;;
38811;SDS011;24553;51.640;-0.752;2023-01-24T01:43:54;10.90;;;3.50;;
38811;SDS011;24553;51.640;-0.752;2023-01-24T01:46:42;10.68;;;3.67;;
38811;SDS011;24553;51.640;-0.752;2023-01-24T01:49:15;9.50;;;3.25;;
38811;SDS011;24553;51.640;-0.752;2023-01-24T01:51:45;9.60;;;3.95;;
38811;SDS011;24553;51.640;-0.752;2023-01-24T01:54:14;6.82;;;3.45;;
38811;SDS011;24553;51.640;-0.752;2023-01-24T01:56:50;8.52;;;4.30;;
38811;SDS011;24553;51.640;-0.752;2023-01-24T01:59:20;7.90;;;3.67;;
38811;SDS011;24553;51.640;-0.752;2023-01-24T02:01:49;8.60;;;3.88;;
38811;SDS011;24553;51.640;-0.752;2023-01-24T02:04:19;10.15;;;4.65;;
38811;SDS011;24553;51.640;-0.752;2023-01-24T02:09:16;8.30;;;3.35;;
38811;SDS011;24553;51.640;-0.752;2023-01-24T02:11:45;7.55;;;3.38;;
38811;SDS011;24553;51.640;-0.752;2023-01-24T02:14:11;8.68;;;3.67;;
38811;SDS011;24553;51.640;-0.752;2023-01-24T02:16:58;9.80;;;3.85;;
38811;SDS011;24553;51.640;-0.752;2023-01-24T02:22:10;11.30;;;3.80;;
38811;SDS011;24553;51.640;-0.752;2023-01-24T02:24:59;9.38;;;4.05;;
38811;SDS011;24553;51.640;-0.752;2023-01-24T02:27:33;7.18;;;3.80;;
38811;SDS011;24553;51.640;-0.752;2023-01-24T02:29:58;11.20;;;4.80;;
38811;SDS011;24553;51.640;-0.752;2023-01-24T02:32:24;10.80;;;3.75;;
38811;SDS011;24553;51.640;-0.752;2023-01-24T02:34:50;9.18;;;4.43;;
38811;SDS011;24553;51.640;-0.752;2023-01-24T02:37:15;8.82;;;4.00;;
38811;SDS011;24553;51.640;-0.752;2023-01-24T02:39:45;4.93;;;2.80;;
38811;SDS011;24553;51.640;-0.752;2023-01-24T02:42:35;11.52;;;3.65;;
38811;SDS011;24553;51.640;-0.752;2023-01-24T02:45:07;4.75;;;3.33;;
38811;SDS011;24553;51.640;-0.752;2023-01-24T02:47:45;10.82;;;3.88;;
38811;SDS011;24553;51.640;-0.752;2023-01-24T02:50:12;9.15;;;4.45;;
38811;SDS011;24553;51.640;-0.752;2023-01-24T02:52:38;10.05;;;3.75;;
38811;SDS011;24553;51.640;-0.752;2023-01-24T02:55:22;7.13;;;4.05;;
38811;SDS011;24553;51.640;-0.752;2023-01-24T02:57:49;8.90;;;3.40;;
38811;SDS011;24553;51.640;-0.752;2023-01-24T03:00:33;11.27;;;3.95;;
38811;SDS011;24553;51.640;-0.752;2023-01-24T03:03:06;7.63;;;3.33;;
38811;SDS011;24553;51.640;-0.752;2023-01-24T03:05:33;8.10;;;4.35;;
38811;SDS011;24553;51.640;-0.752;2023-01-24T03:08:21;7.93;;;5.03;;
38811;SDS011;24553;51.640;-0.752;2023-01-24T03:10:47;6.10;;;2.42;;
38811;SDS011;24553;51.640;-0.752;2023-01-24T03:13:12;5.93;;;3.53;;
38811;SDS011;24553;51.640;-0.752;2023-01-24T03:15:58;11.02;;;4.82;;
38811;SDS011;24553;51.640;-0.752;2023-01-24T03:18:43;7.07;;;3.42;;
38811;SDS011;24553;51.640;-0.752;2023-01-24T03:21:27;8.48;;;3.97;;
38811;SDS011;24553;51.640;-0.752;2023-01-24T03:24:11;8.50;;;2.92;;
38811;SDS011;24553;51.640;-0.752;2023-01-24T03:26:55;12.38;;;4.18;;
38811;SDS011;24553;51.640;-0.752;2023-01-24T03:29:39;8.02;;;2.95;;
38811;SDS011;24553;51.640;-0.752;2023-01-24T03:32:23;6.30;;;3.80;;
38811;SDS011;24553;51.640;-0.752;2023-01-24T03:35:07;6.93;;;3.00;;
38811;SDS011;24553;51.640;-0.752;2023-01-24T03:37:32;4.82;;;3.05;;
38811;SDS011;24553;51.640;-0.752;2023-01-24T03:40:17;6.63;;;2.78;;
38811;SDS011;24553;51.640;-0.752;2023-01-24T03:42:42;8.48;;;2.83;;
38811;SDS011;24553;51.640;-0.752;2023-01-24T03:45:14;8.80;;;3.30;;
38811;SDS011;24553;51.640;-0.752;2023-01-24T03:47:43;6.25;;;2.95;;
38811;SDS011;24553;51.640;-0.752;2023-01-24T03:50:10;9.15;;;3.10;;
38811;SDS011;24553;51.640;-0.752;2023-01-24T03:52:54;7.10;;;3.85;;
38811;SDS011;24553;51.640;-0.752;2023-01-24T03:55:19;7.65;;;3.75;;
38811;SDS011;24553;51.640;-0.752;2023-01-24T03:57:45;5.78;;;3.53;;
38811;SDS011;24553;51.640;-0.752;2023-01-24T04:00:12;6.65;;;3.58;;
38811;SDS011;24553;51.640;-0.752;2023-01-24T04:02:38;11.55;;;3.70;;
38811;SDS011;24553;51.640;-0.752;2023-01-24T04:05:04;5.25;;;3.35;;
38811;SDS011;24553;51.640;-0.752;2023-01-24T04:07:38;7.63;;;3.45;;
38811;SDS011;24553;51.640;-0.752;2023-01-24T04:10:03;7.18;;;3.70;;
38811;SDS011;24553;51.640;-0.752;2023-01-24T04:12:29;4.18;;;2.80;;
38811;SDS011;24553;51.640;-0.752;2023-01-24T04:14:55;9.50;;;4.60;;
38811;SDS011;24553;51.640;-0.752;2023-01-24T04:17:20;5.70;;;3.13;;
38811;SDS011;24553;51.640;-0.752;2023-01-24T04:19:46;10.65;;;3.17;;
38811;SDS011;24553;51.640;-0.752;2023-01-24T04:22:11;6.22;;;3.10;;
38811;SDS011;24553;51.640;-0.752;2023-01-24T04:24:37;7.00;;;3.92;;
38811;SDS011;24553;51.640;-0.752;2023-01-24T04:27:02;6.97;;;3.72;;
38811;SDS011;24553;51.640;-0.752;2023-01-24T04:29:28;7.90;;;2.83;;
38811;SDS011;24553;51.640;-0.752;2023-01-24T04:31:53;5.97;;;2.58;;
38811;SDS011;24553;51.640;-0.752;2023-01-24T04:34:19;8.88;;;4.00;;
38811;SDS011;24553;51.640;-0.752;2023-01-24T04:36:44;6.00;;;4.88;;
38811;SDS011;24553;51.640;-0.752;2023-01-24T04:39:09;5.10;;;2.92;;
38811;SDS011;24553;51.640;-0.752;2023-01-24T04:41:35;5.72;;;3.65;;
38811;SDS011;24553;51.640;-0.752;2023-01-24T04:44:00;7.90;;;3.70;;
38811;SDS011;24553;51.640;-0.752;2023-01-24T04:46:27;7.25;;;3.95;;
38811;SDS011;24553;51.640;-0.752;2023-01-24T04:48:53;9.38;;;3.90;;
38811;SDS011;24553;51.640;-0.752;2023-01-24T04:51:18;9.18;;;4.55;;
38811;SDS011;24553;51.640;-0.752;2023-01-24T04:53:43;7.28;;;3.55;;
38811;SDS011;24553;51.640;-0.752;2023-01-24T04:56:09;6.28;;;3.88;;
38811;SDS011;24553;51.640;-0.752;2023-01-24T04:58:36;6.93;;;3.15;;
38811;SDS011;24553;51.640;-0.752;2023-01-24T05:01:02;7.43;;;3.13;;
38811;SDS011;24553;51.640;-0.752;2023-01-24T05:03:27;8.32;;;4.22;;
38811;SDS011;24553;51.640;-0.752;2023-01-24T05:05:53;5.43;;;3.63;;
38811;SDS011;24553;51.640;-0.752;2023-01-24T05:08:19;7.90;;;3.05;;
38811;SDS011;24553;51.640;-0.752;2023-01-24T05:10:45;8.18;;;3.47;;
38811;SDS011;24553;51.640;-0.752;2023-01-24T05:13:11;5.38;;;2.08;;
38811;SDS011;24553;51.640;-0.752;2023-01-24T05:15:36;7.45;;;3.20;;
38811;SDS011;24553;51.640;-0.752;2023-01-24T05:18:02;7.22;;;2.75;;
38811;SDS011;24553;51.640;-0.752;2023-01-24T05:20:28;4.78;;;3.15;;
38811;SDS011;24553;51.640;-0.752;2023-01-24T05:22:55;7.47;;;3.85;;
38811;SDS011;24553;51.640;-0.752;2023-01-24T05:25:21;6.57;;;2.78;;
38811;SDS011;24553;51.640;-0.752;2023-01-24T05:27:47;6.45;;;3.00;;
38811;SDS011;24553;51.640;-0.752;2023-01-24T05:30:12;6.03;;;3.17;;
38811;SDS011;24553;51.640;-0.752;2023-01-24T05:32:38;8.00;;;3.47;;
38811;SDS011;24553;51.640;-0.752;2023-01-24T05:35:04;4.80;;;3.00;;
38811;SDS011;24553;51.640;-0.752;2023-01-24T05:37:29;6.05;;;3.65;;
38811;SDS011;24553;51.640;-0.752;2023-01-24T05:39:55;8.73;;;2.80;;
38811;SDS011;24553;51.640;-0.752;2023-01-24T05:42:20;5.72;;;3.58;;
38811;SDS011;24553;51.640;-0.752;2023-01-24T05:44:46;7.18;;;3.33;;
38811;SDS011;24553;51.640;-0.752;2023-01-24T05:47:11;4.57;;;3.50;;
38811;SDS011;24553;51.640;-0.752;2023-01-24T05:49:36;5.40;;;2.75;;
38811;SDS011;24553;51.640;-0.752;2023-01-24T05:52:02;5.07;;;3.03;;
38811;SDS011;24553;51.640;-0.752;2023-01-24T05:54:27;7.68;;;2.63;;
38811;SDS011;24553;51.640;-0.752;2023-01-24T05:56:52;4.40;;;2.60;;
38811;SDS011;24553;51.640;-0.752;2023-01-24T05:59:18;7.97;;;3.47;;
38811;SDS011;24553;51.640;-0.752;2023-01-24T06:01:43;8.48;;;3.35;;
38811;SDS011;24553;51.640;-0.752;2023-01-24T06:04:09;3.35;;;2.15;;
38811;SDS011;24553;51.640;-0.752;2023-01-24T06:06:34;7.38;;;2.95;;
38811;SDS011;24553;51.640;-0.752;2023-01-24T06:09:00;5.43;;;3.25;;
38811;SDS011;24553;51.640;-0.752;2023-01-24T06:11:25;7.32;;;3.85;;
38811;SDS011;24553;51.640;-0.752;2023-01-24T06:13:53;5.05;;;2.08;;
38811;SDS011;24553;51.640;-0.752;2023-01-24T06:16:21;4.85;;;2.88;;
38811;SDS011;24553;51.640;-0.752;2023-01-24T06:18:49;5.20;;;3.13;;
38811;SDS011;24553;51.640;-0.752;2023-01-24T06:23:50;6.78;;;3.58;;
38811;SDS011;24553;51.640;-0.752;2023-01-24T06:26:16;5.95;;;2.90;;
38811;SDS011;24553;51.640;-0.752;2023-01-24T06:28:42;4.97;;;2.70;;
38811;SDS011;24553;51.640;-0.752;2023-01-24T06:36:51;3.83;;;1.83;;
38811;SDS011;24553;51.640;-0.752;2023-01-24T06:39:19;4.75;;;1.77;;
38811;SDS011;24553;51.640;-0.752;2023-01-24T06:41:46;4.47;;;1.75;;
38811;SDS011;24553;51.640;-0.752;2023-01-24T06:44:12;4.65;;;2.30;;
38811;SDS011;24553;51.640;-0.752;2023-01-24T06:46:37;2.25;;;1.42;;
38811;SDS011;24553;51.640;-0.752;2023-01-24T06:49:03;7.00;;;2.58;;
38811;SDS011;24553;51.640;-0.752;2023-01-24T06:51:28;5.10;;;2.10;;
38811;SDS011;24553;51.640;-0.752;2023-01-24T06:53:53;3.95;;;2.20;;
38811;SDS011;24553;51.640;-0.752;2023-01-24T06:56:19;5.07;;;3.22;;
38811;SDS011;24553;51.640;-0.752;2023-01-24T06:58:44;7.75;;;3.28;;
38811;SDS011;24553;51.640;-0.752;2023-01-24T07:01:09;4.93;;;2.63;;
38811;SDS011;24553;51.640;-0.752;2023-01-24T07:03:35;4.53;;;2.22;;
38811;SDS011;24553;51.640;-0.752;2023-01-24T07:06:00;3.53;;;1.52;;
38811;SDS011;24553;51.640;-0.752;2023-01-24T07:08:26;4.82;;;1.27;;
38811;SDS011;24553;51.640;-0.752;2023-01-24T07:10:51;5.35;;;2.33;;
38811;SDS011;24553;51.640;-0.752;2023-01-24T07:13:16;6.05;;;2.40;;
38811;SDS011;24553;51.640;-0.752;2023-01-24T07:15:42;6.90;;;2.20;;
38811;SDS011;24553;51.640;-0.752;2023-01-24T07:18:08;6.10;;;2.85;;
38811;SDS011;24553;51.640;-0.752;2023-01-24T07:20:36;6.63;;;3.17;;
38811;SDS011;24553;51.640;-0.752;2023-01-24T07:23:01;7.30;;;2.97;;
38811;SDS011;24553;51.640;-0.752;2023-01-24T07:25:27;3.03;;;2.40;;
38811;SDS011;24553;51.640;-0.752;2023-01-24T07:27:53;6.45;;;2.85;;
38811;SDS011;24553;51.640;-0.752;2023-01-24T07:30:19;5.15;;;2.17;;
38811;SDS011;24553;51.640;-0.752;2023-01-24T07:32:44;6.90;;;3.13;;
38811;SDS011;24553;51.640;-0.752;2023-01-24T07:35:10;5.72;;;2.10;;
38811;SDS011;24553;51.640;-0.752;2023-01-24T07:37:36;8.20;;;3.10;;
38811;SDS011;24553;51.640;-0.752;2023-01-24T07:40:02;5.35;;;2.78;;
38811;SDS011;24553;51.640;-0.752;2023-01-24T07:42:28;5.07;;;2.97;;
38811;SDS011;24553;51.640;-0.752;2023-01-24T07:44:53;5.25;;;2.42;;
38811;SDS011;24553;51.640;-0.752;2023-01-24T07:47:19;6.45;;;2.83;;
38811;SDS011;24553;51.640;-0.752;2023-01-24T07:49:45;8.68;;;2.80;;
38811;SDS011;24553;51.640;-0.752;2023-01-24T07:52:10;6.28;;;3.30;;
38811;SDS011;24553;51.640;-0.752;2023-01-24T07:54:35;6.53;;;3.38;;
38811;SDS011;24553;51.640;-0.752;2023-01-24T07:57:01;5.72;;;3.00;;
38811;SDS011;24553;51.640;-0.752;2023-01-24T07:59:26;6.47;;;2.55;;
38811;SDS011;24553;51.640;-0.752;2023-01-24T08:01:51;8.88;;;3.25;;
38811;SDS011;24553;51.640;-0.752;2023-01-24T08:04:17;6.78;;;3.47;;
38811;SDS011;24553;51.640;-0.752;2023-01-24T08:06:43;5.25;;;2.28;;
38811;SDS011;24553;51.640;-0.752;2023-01-24T08:09:28;6.93;;;2.30;;
38811;SDS011;24553;51.640;-0.752;2023-01-24T08:11:54;5.93;;;2.05;;
38811;SDS011;24553;51.640;-0.752;2023-01-24T08:14:19;10.25;;;3.25;;
38811;SDS011;24553;51.640;-0.752;2023-01-24T08:16:46;5.00;;;2.15;;
38811;SDS011;24553;51.640;-0.752;2023-01-24T08:19:12;4.50;;;2.60;;
38811;SDS011;24553;51.640;-0.752;2023-01-24T08:21:38;7.38;;;2.55;;
38811;SDS011;24553;51.640;-0.752;2023-01-24T08:24:03;6.90;;;2.50;;
38811;SDS011;24553;51.640;-0.752;2023-01-24T08:26:28;8.63;;;2.13;;
38811;SDS011;24553;51.640;-0.752;2023-01-24T08:28:54;2.40;;;2.15;;
38811;SDS011;24553;51.640;-0.752;2023-01-24T08:31:19;5.70;;;2.72;;
38811;SDS011;24553;51.640;-0.752;2023-01-24T08:33:44;4.13;;;2.15;;
38811;SDS011;24553;51.640;-0.752;2023-01-24T08:36:10;4.60;;;2.53;;
38811;SDS011;24553;51.640;-0.752;2023-01-24T08:38:35;6.35;;;2.85;;
38811;SDS011;24553;51.640;-0.752;2023-01-24T08:41:04;9.55;;;3.70;;
38811;SDS011;24553;51.640;-0.752;2023-01-24T08:43:29;8.57;;;3.50;;
38811;SDS011;24553;51.640;-0.752;2023-01-24T08:45:55;8.38;;;3.03;;
38811;SDS011;24553;51.640;-0.752;2023-01-24T08:48:21;3.90;;;2.45;;
38811;SDS011;24553;51.640;-0.752;2023-01-24T08:50:46;10.00;;;2.35;;
38811;SDS011;24553;51.640;-0.752;2023-01-24T08:53:11;3.65;;;2.85;;
38811;SDS011;24553;51.640;-0.752;2023-01-24T08:55:37;6.03;;;2.75;;
38811;SDS011;24553;51.640;-0.752;2023-01-24T08:58:02;5.38;;;2.45;;
38811;SDS011;24553;51.640;-0.752;2023-01-24T09:00:29;7.03;;;3.17;;
38811;SDS011;24553;51.640;-0.752;2023-01-24T09:02:55;6.35;;;3.17;;
38811;SDS011;24553;51.640;-0.752;2023-01-24T09:05:25;10.20;;;3.92;;
38811;SDS011;24553;51.640;-0.752;2023-01-24T09:07:51;12.23;;;5.05;;
38811;SDS011;24553;51.640;-0.752;2023-01-24T09:10:16;11.77;;;5.20;;
38811;SDS011;24553;51.640;-0.752;2023-01-24T09:12:42;7.70;;;3.70;;
38811;SDS011;24553;51.640;-0.752;2023-01-24T09:15:07;17.13;;;5.93;;
38811;SDS011;24553;51.640;-0.752;2023-01-24T09:17:33;9.98;;;4.10;;
38811;SDS011;24553;51.640;-0.752;2023-01-24T09:19:59;10.75;;;4.93;;
38811;SDS011;24553;51.640;-0.752;2023-01-24T09:22:24;7.70;;;3.67;;
38811;SDS011;24553;51.640;-0.752;2023-01-24T09:24:50;6.70;;;2.75;;
38811;SDS011;24553;51.640;-0.752;2023-01-24T09:27:15;6.00;;;3.40;;
38811;SDS011;24553;51.640;-0.752;2023-01-24T09:29:40;7.90;;;3.10;;
38811;SDS011;24553;51.640;-0.752;2023-01-24T09:32:06;4.35;;;2.47;;
38811;SDS011;24553;51.640;-0.752;2023-01-24T09:34:31;6.68;;;4.10;;
38811;SDS011;24553;51.640;-0.752;2023-01-24T09:36:56;8.63;;;3.05;;
38811;SDS011;24553;51.640;-0.752;2023-01-24T09:39:22;6.85;;;3.47;;
38811;SDS011;24553;51.640;-0.752;2023-01-24T09:41:57;6.90;;;3.38;;
38811;SDS011;24553;51.640;-0.752;2023-01-24T09:44:34;3.03;;;2.20;;
38811;SDS011;24553;51.640;-0.752;2023-01-24T09:47:18;9.73;;;3.85;;
38811;SDS011;24553;51.640;-0.752;2023-01-24T09:49:52;5.82;;;3.25;;
38811;SDS011;24553;51.640;-0.752;2023-01-24T09:52:29;7.03;;;3.72;;
38811;SDS011;24553;51.640;-0.752;2023-01-24T09:55:02;7.30;;;3.28;;
38811;SDS011;24553;51.640;-0.752;2023-01-24T10:00:16;4.78;;;3.30;;
38811;SDS011;24553;51.640;-0.752;2023-01-24T10:02:50;6.00;;;3.33;;
38811;SDS011;24553;51.640;-0.752;2023-01-24T10:05:16;6.22;;;3.15;;
38811;SDS011;24553;51.640;-0.752;2023-01-24T10:20:36;7.13;;;3.22;;
38811;SDS011;24553;51.640;-0.752;2023-01-24T10:23:15;8.23;;;3.30;;
38811;SDS011;24553;51.640;-0.752;2023-01-24T10:28:37;8.55;;;3.72;;
38811;SDS011;24553;51.640;-0.752;2023-01-24T10:31:13;7.32;;;3.35;;
38811;SDS011;24553;51.640;-0.752;2023-01-24T10:33:50;5.88;;;3.00;;
38811;SDS011;24553;51.640;-0.752;2023-01-24T10:39:14;19.48;;;4.40;;
38811;SDS011;24553;51.640;-0.752;2023-01-24T10:41:39;18.20;;;5.45;;
38811;SDS011;24553;51.640;-0.752;2023-01-24T10:44:14;12.15;;;4.90;;
38811;SDS011;24553;51.640;-0.752;2023-01-24T10:49:33;22.10;;;6.88;;
38811;SDS011;24553;51.640;-0.752;2023-01-24T10:52:08;16.27;;;6.97;;
38811;SDS011;24553;51.640;-0.752;2023-01-24T10:55:39;14.80;;;7.03;;
38811;SDS011;24553;51.640;-0.752;2023-01-24T10:57:53;19.55;;;8.27;;
38811;SDS011;24553;51.640;-0.752;2023-01-24T11:00:32;14.95;;;5.60;;
38811;SDS011;24553;51.640;-0.752;2023-01-24T11:03:03;16.73;;;7.00;;
38811;SDS011;24553;51.640;-0.752;2023-01-24T11:08:16;4.88;;;3.10;;
38811;SDS011;24553;51.640;-0.752;2023-01-24T11:10:56;7.65;;;2.85;;
38811;SDS011;24553;51.640;-0.752;2023-01-24T11:15:51;5.35;;;2.58;;
38811;SDS011;24553;51.640;-0.752;2023-01-24T11:18:21;4.68;;;2.85;;
38811;SDS011;24553;51.640;-0.752;2023-01-24T11:21:03;7.97;;;4.15;;
38811;SDS011;24553;51.640;-0.752;2023-01-24T11:23:39;4.00;;;2.22;;
38811;SDS011;24553;51.640;-0.752;2023-01-24T11:26:08;4.13;;;3.15;;
38811;SDS011;24553;51.640;-0.752;2023-01-24T11:28:48;6.03;;;2.70;;
38811;SDS011;24553;51.640;-0.752;2023-01-24T11:36:35;7.28;;;3.88;;
38811;SDS011;24553;51.640;-0.752;2023-01-24T11:39:23;6.68;;;2.95;;
38811;SDS011;24553;51.640;-0.752;2023-01-24T11:47:24;6.88;;;3.47;;
38811;SDS011;24553;51.640;-0.752;2023-01-24T11:52:56;5.63;;;3.28;;
38811;SDS011;24553;51.640;-0.752;2023-01-24T12:00:35;5.55;;;3.38;;
38811;SDS011;24553;51.640;-0.752;2023-01-24T12:05:46;7.97;;;3.70;;
38811;SDS011;24553;51.640;-0.752;2023-01-24T12:08:23;10.43;;;3.55;;
38811;SDS011;24553;51.640;-0.752;2023-01-24T12:18:51;5.40;;;3.60;;
38811;SDS011;24553;51.640;-0.752;2023-01-24T12:21:20;4.50;;;2.90;;
38811;SDS011;24553;51.640;-0.752;2023-01-24T12:26:27;6.55;;;3.67;;
38811;SDS011;24553;51.640;-0.752;2023-01-24T12:29:09;6.70;;;3.42;;
38811;SDS011;24553;51.640;-0.752;2023-01-24T12:48:28;7.90;;;3.90;;
38811;SDS011;24553;51.640;-0.752;2023-01-24T12:53:38;5.10;;;3.92;;
38811;SDS011;24553;51.640;-0.752;2023-01-24T12:56:19;5.63;;;3.10;;
38811;SDS011;24553;51.640;-0.752;2023-01-24T12:58:48;4.85;;;3.08;;
38811;SDS011;24553;51.640;-0.752;2023-01-24T13:12:24;8.45;;;3.55;;
38811;SDS011;24553;51.640;-0.752;2023-01-24T13:14:56;9.75;;;4.15;;
38811;SDS011;24553;51.640;-0.752;2023-01-24T13:36:12;7.82;;;3.75;;
38811;SDS011;24553;51.640;-0.752;2023-01-24T13:38:43;3.85;;;2.88;;
38811;SDS011;24553;51.640;-0.752;2023-01-24T13:41:43;5.82;;;3.22;;
38811;SDS011;24553;51.640;-0.752;2023-01-24T13:44:03;8.07;;;3.45;;
38811;SDS011;24553;51.640;-0.752;2023-01-24T13:54:56;7.70;;;3.08;;
38811;SDS011;24553;51.640;-0.752;2023-01-24T13:57:32;2.25;;;1.95;;
38811;SDS011;24553;51.640;-0.752;2023-01-24T14:02:36;4.60;;;2.92;;
38811;SDS011;24553;51.640;-0.752;2023-01-24T14:10:44;4.65;;;2.95;;
38811;SDS011;24553;51.640;-0.752;2023-01-24T14:18:52;6.50;;;3.40;;
38811;SDS011;24553;51.640;-0.752;2023-01-24T14:21:27;4.20;;;3.10;;
38811;SDS011;24553;51.640;-0.752;2023-01-24T14:26:26;12.10;;;7.22;;
38811;SDS011;24553;51.640;-0.752;2023-01-24T14:28:55;11.13;;;5.95;;
38811;SDS011;24553;51.640;-0.752;2023-01-24T14:31:25;11.13;;;5.07;;
38811;SDS011;24553;51.640;-0.752;2023-01-24T14:34:13;8.38;;;4.97;;
38811;SDS011;24553;51.640;-0.752;2023-01-24T14:36:41;6.35;;;4.22;;
38811;SDS011;24553;51.640;-0.752;2023-01-24T14:41:45;4.75;;;3.50;;
38811;SDS011;24553;51.640;-0.752;2023-01-24T14:44:16;7.20;;;3.47;;
38811;SDS011;24553;51.640;-0.752;2023-01-24T14:46:55;5.45;;;3.65;;
38811;SDS011;24553;51.640;-0.752;2023-01-24T14:51:59;6.72;;;4.05;;
38811;SDS011;24553;51.640;-0.752;2023-01-24T14:54:26;5.78;;;3.25;;
38811;SDS011;24553;51.640;-0.752;2023-01-24T14:56:51;5.70;;;4.15;;
38811;SDS011;24553;51.640;-0.752;2023-01-24T14:59:17;8.45;;;4.78;;
38811;SDS011;24553;51.640;-0.752;2023-01-24T15:01:45;11.10;;;5.57;;
38811;SDS011;24553;51.640;-0.752;2023-01-24T15:04:27;10.65;;;4.65;;
38811;SDS011;24553;51.640;-0.752;2023-01-24T15:07:13;7.78;;;4.57;;
38811;SDS011;24553;51.640;-0.752;2023-01-24T15:09:40;8.25;;;4.07;;
38811;SDS011;24553;51.640;-0.752;2023-01-24T15:12:13;9.13;;;5.05;;
38811;SDS011;24553;51.640;-0.752;2023-01-24T15:14:47;8.35;;;4.05;;
38811;SDS011;24553;51.640;-0.752;2023-01-24T15:17:16;9.77;;;4.97;;
38811;SDS011;24553;51.640;-0.752;2023-01-24T15:19:47;11.77;;;7.00;;
38811;SDS011;24553;51.640;-0.752;2023-01-24T15:22:17;12.88;;;5.95;;
38811;SDS011;24553;51.640;-0.752;2023-01-24T15:24:48;10.25;;;5.95;;
38811;SDS011;24553;51.640;-0.752;2023-01-24T15:30:08;13.98;;;5.30;;
38811;SDS011;24553;51.640;-0.752;2023-01-24T15:32:46;10.25;;;4.97;;
38811;SDS011;24553;51.640;-0.752;2023-01-24T15:38:00;8.05;;;4.75;;
38811;SDS011;24553;51.640;-0.752;2023-01-24T15:43:19;14.27;;;3.88;;
38811;SDS011;24553;51.640;-0.752;2023-01-24T15:46:05;12.07;;;5.07;;
38811;SDS011;24553;51.640;-0.752;2023-01-24T15:49:00;7.72;;;4.68;;
38811;SDS011;24553;51.640;-0.752;2023-01-24T15:51:40;8.80;;;4.47;;
38811;SDS011;24553;51.640;-0.752;2023-01-24T15:54:11;9.50;;;4.13;;
38811;SDS011;24553;51.640;-0.752;2023-01-24T15:56:38;16.37;;;6.80;;
38811;SDS011;24553;51.640;-0.752;2023-01-24T15:59:12;9.38;;;5.57;;
38811;SDS011;24553;51.640;-0.752;2023-01-24T16:01:41;11.50;;;5.10;;
38811;SDS011;24553;51.640;-0.752;2023-01-24T16:04:16;8.95;;;4.20;;
38811;SDS011;24553;51.640;-0.752;2023-01-24T16:06:43;8.80;;;5.13;;
38811;SDS011;24553;51.640;-0.752;2023-01-24T16:09:09;9.70;;;4.57;;
38811;SDS011;24553;51.640;-0.752;2023-01-24T16:11:35;8.75;;;3.90;;
38811;SDS011;24553;51.640;-0.752;2023-01-24T16:14:01;6.90;;;4.32;;
38811;SDS011;24553;51.640;-0.752;2023-01-24T16:16:27;13.50;;;5.95;;
38811;SDS011;24553;51.640;-0.752;2023-01-24T16:18:53;8.20;;;4.75;;
38811;SDS011;24553;51.640;-0.752;2023-01-24T16:21:18;10.00;;;4.47;;
38811;SDS011;24553;51.640;-0.752;2023-01-24T16:23:44;9.43;;;4.82;;
38811;SDS011;24553;51.640;-0.752;2023-01-24T16:26:22;7.18;;;3.95;;
38811;SDS011;24553;51.640;-0.752;2023-01-24T16:28:49;9.15;;;4.65;;
38811;SDS011;24553;51.640;-0.752;2023-01-24T16:31:15;7.43;;;4.78;;
38811;SDS011;24553;51.640;-0.752;2023-01-24T16:33:41;10.35;;;4.15;;
38811;SDS011;24553;51.640;-0.752;2023-01-24T16:36:07;9.30;;;4.53;;
38811;SDS011;24553;51.640;-0.752;2023-01-24T16:38:36;7.90;;;3.95;;
38811;SDS011;24553;51.640;-0.752;2023-01-24T16:41:02;9.70;;;4.13;;
38811;SDS011;24553;51.640;-0.752;2023-01-24T16:43:28;7.32;;;3.45;;
38811;SDS011;24553;51.640;-0.752;2023-01-24T16:45:54;8.05;;;4.82;;
38811;SDS011;24553;51.640;-0.752;2023-01-24T16:48:20;7.40;;;4.63;;
38811;SDS011;24553;51.640;-0.752;2023-01-24T16:50:45;10.50;;;4.55;;
38811;SDS011;24553;51.640;-0.752;2023-01-24T16:53:11;7.88;;;3.90;;
38811;SDS011;24553;51.640;-0.752;2023-01-24T16:55:38;7.15;;;4.10;;
38811;SDS011;24553;51.640;-0.752;2023-01-24T16:58:04;6.85;;;3.63;;
38811;SDS011;24553;51.640;-0.752;2023-01-24T17:00:30;10.02;;;4.97;;
38811;SDS011;24553;51.640;-0.752;2023-01-24T17:02:56;7.22;;;3.55;;
38811;SDS011;24553;51.640;-0.752;2023-01-24T17:05:25;10.57;;;4.53;;
38811;SDS011;24553;51.640;-0.752;2023-01-24T17:07:52;8.68;;;4.45;;
38811;SDS011;24553;51.640;-0.752;2023-01-24T17:10:17;8.13;;;3.92;;
38811;SDS011;24553;51.640;-0.752;2023-01-24T17:12:43;9.10;;;5.05;;
38811;SDS011;24553;51.640;-0.752;2023-01-24T17:15:09;10.32;;;4.07;;
38811;SDS011;24553;51.640;-0.752;2023-01-24T17:17:34;9.45;;;4.22;;
38811;SDS011;24553;51.640;-0.752;2023-01-24T17:20:00;8.25;;;4.32;;
38811;SDS011;24553;51.640;-0.752;2023-01-24T17:22:26;10.32;;;5.07;;
38811;SDS011;24553;51.640;-0.752;2023-01-24T17:24:53;17.30;;;6.82;;